Time;durP1;ratioP1;P1;durP2;ratioP2;P2;SDS_P1;SDS_P2;PMS_P1;PMS_P2;Temp;Humidity;BMP_temperature;BMP_pressure;BME280_temperature;BME280_humidity;BME280_pressure;Samples;Min_cycle;Max_cycle;Signal;HPM_P1;HPM_P2
2024/04/23 00:01:36;;;;;;;0.88;0.75;;;17.50;56.10;;;;;;11207523;26;20000;-28
2024/04/23 00:06:39;;;;;;;1.33;0.80;;;17.50;56.20;;;;;;11207788;26;20004;-28
2024/04/23 00:11:45;;;;;;;1.40;0.70;;;17.40;56.20;;;;;;11214020;26;20354;-29
2024/04/23 00:16:58;;;;;;;1.58;0.60;;;17.40;56.20;;;;;;11214352;26;20007;-26
2024/04/23 00:22:01;;;;;;;0.80;0.60;;;17.40;56.20;;;;;;11214348;26;20000;-29
2024/04/23 00:27:07;;;;;;;1.58;0.75;;;17.30;56.20;;;;;;11214127;26;19996;-27
2024/04/23 00:32:12;;;;;;;0.70;0.70;;;17.30;56.30;;;;;;11214639;26;20000;-27
2024/04/23 00:37:15;;;;;;;0.80;0.70;;;17.30;56.40;;;;;;11214147;26;20112;-28
2024/04/23 00:42:21;;;;;;;0.85;0.70;;;17.30;56.40;;;;;;11213548;26;20408;-29
2024/04/23 00:47:24;;;;;;;0.77;0.68;;;17.30;56.40;;;;;;11213506;26;20410;-27
2024/04/23 00:52:27;;;;;;;0.75;0.57;;;17.20;56.40;;;;;;11213874;26;20012;-28
2024/04/23 00:57:33;;;;;;;0.80;0.68;;;17.20;56.40;;;;;;11212883;26;20011;-25
2024/04/23 01:02:37;;;;;;;0.90;0.60;;;17.20;56.50;;;;;;11213151;26;20477;-28
2024/04/23 01:07:40;;;;;;;0.82;0.70;;;17.20;56.50;;;;;;11213283;26;20008;-27
2024/04/23 01:12:46;;;;;;;1.15;0.57;;;17.10;56.50;;;;;;11212888;26;20003;-27
2024/04/23 01:17:49;;;;;;;0.82;0.60;;;17.10;56.60;;;;;;11212716;26;19999;-27
2024/04/23 01:23:01;;;;;;;0.57;0.55;;;17.10;56.60;;;;;;11211460;26;20014;-27
2024/04/23 01:28:07;;;;;;;0.65;0.60;;;17.00;56.60;;;;;;11212247;26;20007;-29
2024/04/23 01:33:10;;;;;;;0.65;0.60;;;17.00;56.70;;;;;;11212203;26;20015;-30
2024/04/23 01:38:14;;;;;;;1.00;0.65;;;17.00;56.70;;;;;;11212005;26;20000;-29
2024/04/23 01:43:20;;;;;;;0.80;0.70;;;17.00;56.80;;;;;;11209107;26;20010;-29
2024/04/23 01:48:23;;;;;;;0.70;0.63;;;16.90;56.70;;;;;;11210750;26;20459;-26
2024/04/23 01:53:26;;;;;;;0.77;0.60;;;16.90;56.80;;;;;;11211222;26;20003;-26
2024/04/23 01:58:32;;;;;;;0.77;0.77;;;16.90;56.80;;;;;;11211496;26;19999;-30
2024/04/23 02:03:36;;;;;;;0.73;0.70;;;16.90;56.90;;;;;;11211277;26;20473;-26
2024/04/23 02:08:39;;;;;;;0.50;0.50;;;16.80;56.90;;;;;;11211145;26;20492;-27
2024/04/23 02:13:45;;;;;;;0.55;0.55;;;16.80;56.90;;;;;;11211044;26;20000;-27
2024/04/23 02:18:48;;;;;;;0.60;0.60;;;16.80;56.90;;;;;;11209825;26;20011;-26
2024/04/23 02:23:51;;;;;;;0.73;0.70;;;16.80;56.90;;;;;;11210037;26;20419;-29
2024/04/23 02:28:57;;;;;;;0.60;0.60;;;16.70;56.90;;;;;;11210382;26;20049;-29
2024/04/23 02:34:00;;;;;;;0.68;0.60;;;16.70;57.00;;;;;;11210497;26;20003;-27
2024/04/23 02:39:04;;;;;;;0.57;0.57;;;16.70;57.00;;;;;;11209981;26;20085;-28
2024/04/23 02:44:10;;;;;;;0.60;0.50;;;16.70;57.00;;;;;;11209710;26;20364;-30
2024/04/23 02:49:13;;;;;;;0.75;0.75;;;16.60;57.00;;;;;;11210201;26;20014;-28
2024/04/23 02:54:16;;;;;;;1.00;0.50;;;16.60;57.10;;;;;;11209609;26;20004;-27
2024/04/23 02:59:23;;;;;;;0.63;0.43;;;16.50;57.00;;;;;;11209083;26;20011;-30
2024/04/23 03:04:26;;;;;;;0.60;0.60;;;16.50;57.60;;;;;;11208811;26;19999;-27
2024/04/23 03:09:29;;;;;;;0.70;0.50;;;16.50;57.10;;;;;;11209172;26;20011;-24
2024/04/23 03:14:35;;;;;;;0.50;0.50;;;16.50;57.10;;;;;;11208999;26;20010;-26
2024/04/23 03:19:38;;;;;;;0.60;0.60;;;16.40;57.10;;;;;;11209020;26;19999;-29
2024/04/23 03:24:42;;;;;;;0.63;0.63;;;16.50;57.10;;;;;;11208382;26;20007;-28
2024/04/23 03:29:48;;;;;;;0.50;0.50;;;16.90;56.30;;;;;;11208285;26;20014;-26
2024/04/23 03:34:51;;;;;;;0.60;0.40;;;17.30;55.30;;;;;;11208695;26;20532;-26
2024/04/23 03:39:54;;;;;;;0.52;0.52;;;17.70;54.60;;;;;;11208388;26;20014;-28
2024/04/23 03:45:00;;;;;;;0.60;0.60;;;18.00;53.80;;;;;;11207140;26;20427;-31
2024/04/23 03:50:03;;;;;;;0.52;0.50;;;18.20;53.40;;;;;;11207939;26;20014;-27
2024/04/23 03:55:07;;;;;;;0.43;0.40;;;18.30;53.20;;;;;;11208072;26;20019;-30
2024/04/23 04:00:14;;;;;;;0.75;0.50;;;18.40;53.10;;;;;;11207732;26;20319;-26
2024/04/23 04:10:36;;;;;;;0.40;0.40;;;18.50;53.20;;;;;;11212015;26;20007;-30
2024/04/23 04:15:42;;;;;;;0.50;0.50;;;18.40;53.40;;;;;;11206286;26;20008;-26
2024/04/23 04:20:45;;;;;;;0.43;0.43;;;18.40;53.50;;;;;;11206824;26;20079;-26
2024/04/23 04:25:48;;;;;;;0.60;0.60;;;18.40;53.70;;;;;;11206236;26;20000;-30
2024/04/23 04:30:54;;;;;;;0.57;0.40;;;18.40;53.60;;;;;;11206657;26;20077;-27
2024/04/23 04:35:57;;;;;;;0.45;0.45;;;18.50;53.40;;;;;;11206337;26;20462;-25
2024/04/23 04:41:01;;;;;;;0.40;0.40;;;18.50;53.70;;;;;;11205717;26;20011;-28
2024/04/23 04:46:07;;;;;;;0.55;0.50;;;18.50;53.80;;;;;;11206008;26;20011;-28
2024/04/23 04:51:10;;;;;;;2.35;0.70;;;18.40;54.00;;;;;;11205866;26;19996;-28
2024/04/23 04:56:13;;;;;;;3.28;1.02;;;18.40;53.60;;;;;;11208657;26;20018;-26
2024/04/23 05:01:20;;;;;;;1.45;1.10;;;18.40;52.90;;;;;;11213122;26;20082;-28
2024/04/23 05:06:23;;;;;;;2.50;0.93;;;18.40;52.40;;;;;;11212366;26;20023;-26
2024/04/23 05:11:27;;;;;;;2.72;1.20;;;18.40;52.00;;;;;;11212885;26;19995;-27
2024/04/23 05:16:33;;;;;;;1.88;1.35;;;18.40;51.80;;;;;;11212415;26;20402;-28
2024/04/23 05:21:36;;;;;;;7.35;1.40;;;18.20;52.00;;;;;;11212027;26;20454;-29
2024/04/23 05:26:39;;;;;;;2.90;1.38;;;18.20;52.30;;;;;;11212250;26;20010;-29
2024/04/23 05:37:05;;;;;;;15.82;4.18;;;18.30;52.60;;;;;;11218088;26;20462;-25
2024/04/23 05:42:09;;;;;;;31.15;6.70;;;18.30;52.60;;;;;;11211790;26;20019;-27
2024/04/23 05:47:15;;;;;;;42.72;7.32;;;18.40;54.80;;;;;;11211823;26;20004;-28
2024/04/23 05:52:58;;;;;;;40.33;8.50;;;18.60;54.30;;;;;;11211690;26;20011;-26
2024/04/23 05:58:01;;;;;;;;;;;18.60;54.50;;;;;;11213279;26;20008;-25
2024/04/23 06:03:07;;;;;;;38.67;7.75;;;18.50;54.40;;;;;;11211283;26;19961;-25
2024/04/23 06:08:10;;;;;;;44.42;7.70;;;18.60;57.20;;;;;;11208222;26;20011;-26
2024/04/23 06:13:14;;;;;;;24.13;6.65;;;18.60;57.00;;;;;;11211204;26;20000;-28
2024/04/23 06:18:22;;;;;;;26.75;6.45;;;18.60;56.80;;;;;;11210870;26;20011;-27
2024/04/23 06:23:27;;;;;;;26.23;6.45;;;18.60;56.80;;;;;;11210738;26;19996;-27
2024/04/23 06:28:33;;;;;;;20.55;6.55;;;18.60;56.90;;;;;;11210768;26;19996;-28
2024/04/23 06:33:39;;;;;;;17.02;5.10;;;18.60;57.00;;;;;;11210366;26;20014;-28
2024/04/23 06:38:42;;;;;;;21.83;5.55;;;18.60;56.80;;;;;;11210451;26;20007;-26
2024/04/23 06:43:45;;;;;;;21.80;5.60;;;18.60;57.30;;;;;;11210429;26;20015;-28
2024/04/23 06:48:51;;;;;;;15.50;5.20;;;18.60;56.60;;;;;;11210103;26;20014;-26
2024/04/23 06:53:54;;;;;;;19.50;5.55;;;18.60;56.60;;;;;;11210042;26;19999;-26
2024/04/23 06:58:57;;;;;;;16.30;4.93;;;18.60;56.40;;;;;;11209913;26;20012;-28
2024/04/23 07:04:03;;;;;;;13.10;4.30;;;18.60;56.10;;;;;;11209503;26;20007;-30
2024/04/23 07:09:08;;;;;;;13.85;4.40;;;18.60;55.80;;;;;;11209570;26;20014;-27
2024/04/23 07:14:12;;;;;;;13.23;4.22;;;18.60;55.80;;;;;;11209301;26;20004;-28
2024/04/23 07:19:18;;;;;;;10.27;3.72;;;18.70;55.40;;;;;;11208050;26;20473;-28
2024/04/23 07:24:21;;;;;;;11.88;3.90;;;18.80;55.40;;;;;;11208971;26;20011;-27
2024/04/23 07:29:27;;;;;;;10.98;3.55;;;18.80;55.00;;;;;;11208910;26;20373;-28
2024/04/23 07:34:33;;;;;;;9.77;3.63;;;18.80;54.90;;;;;;11208627;26;20010;-28
2024/04/23 07:39:36;;;;;;;13.23;3.45;;;18.80;55.00;;;;;;11208616;26;20012;-29
2024/04/23 07:44:40;;;;;;;8.85;3.33;;;18.80;55.00;;;;;;11208250;26;20016;-29
2024/04/23 07:49:47;;;;;;;12.45;3.38;;;18.80;54.80;;;;;;11208152;26;19996;-29
2024/04/23 07:54:51;;;;;;;9.07;3.25;;;18.90;55.00;;;;;;11208248;26;20453;-27
2024/04/23 07:59:54;;;;;;;7.65;3.40;;;18.80;55.10;;;;;;11207831;26;20023;-27
2024/04/23 08:05:00;;;;;;;9.38;3.70;;;18.80;54.80;;;;;;11207518;26;20015;-26
2024/04/23 08:10:03;;;;;;;7.13;2.78;;;18.70;55.00;;;;;;11207592;26;20013;-27
2024/04/23 08:15:07;;;;;;;9.05;3.00;;;18.70;54.90;;;;;;11207145;26;20007;-28
2024/04/23 08:20:14;;;;;;;6.40;2.65;;;18.70;55.20;;;;;;11207449;26;20076;-28
2024/04/23 08:25:17;;;;;;;7.45;2.92;;;18.70;55.00;;;;;;11206848;26;20014;-28
2024/04/23 08:30:21;;;;;;;6.78;2.80;;;18.70;55.00;;;;;;11210013;26;20039;-27
2024/04/23 08:35:27;;;;;;;5.93;2.75;;;18.70;54.80;;;;;;11214135;26;20027;-23
2024/04/23 08:40:30;;;;;;;7.55;2.55;;;18.70;54.70;;;;;;11213758;26;19999;-25
2024/04/23 08:45:34;;;;;;;5.82;2.70;;;18.80;54.60;;;;;;11213553;26;20000;-30
2024/04/23 08:50:40;;;;;;;5.57;2.55;;;18.70;54.40;;;;;;11249450;26;20013;-28
2024/04/23 08:55:45;;;;;;;7.53;2.78;;;18.90;54.20;;;;;;11287671;26;20011;-27
2024/04/23 09:00:49;;;;;;;5.43;2.55;;;18.90;54.10;;;;;;11287721;26;20010;-26
2024/04/23 09:05:55;;;;;;;6.15;2.50;;;18.90;53.80;;;;;;11287325;26;20044;-27
2024/04/23 09:10:59;;;;;;;6.60;2.80;;;18.90;53.90;;;;;;11287373;26;20011;-27
2024/04/23 09:16:02;;;;;;;5.60;2.50;;;19.00;54.00;;;;;;11287231;26;20002;-28
2024/04/23 09:21:08;;;;;;;4.97;2.15;;;19.00;53.70;;;;;;11287055;26;19999;-25
2024/04/23 09:26:11;;;;;;;4.45;1.92;;;19.10;53.80;;;;;;11286777;26;20007;-27
2024/04/23 09:31:15;;;;;;;6.13;2.00;;;19.10;53.70;;;;;;11286763;26;19998;-24
2024/04/23 09:36:23;;;;;;;4.05;1.73;;;19.10;54.20;;;;;;11286927;26;19999;-26
2024/04/23 09:41:26;;;;;;;3.83;2.00;;;19.10;53.80;;;;;;11285676;26;20010;-27
2024/04/23 09:46:32;;;;;;;4.80;2.20;;;19.10;53.90;;;;;;11286205;26;20006;-31
2024/04/23 09:51:38;;;;;;;3.75;1.80;;;19.10;53.60;;;;;;11234033;26;20420;-31
2024/04/23 09:56:41;;;;;;;3.65;1.80;;;19.10;53.50;;;;;;11212075;26;20008;-28
2024/04/23 10:01:44;;;;;;;3.25;1.80;;;19.10;53.70;;;;;;11211542;26;20685;-26
2024/04/23 10:06:50;;;;;;;3.10;1.85;;;19.10;54.30;;;;;;11211123;26;19999;-27
2024/04/23 10:11:56;;;;;;;2.78;1.40;;;19.10;53.50;;;;;;11211274;26;20358;-26
2024/04/23 10:17:02;;;;;;;2.92;1.45;;;19.10;53.80;;;;;;11211006;26;20493;-27
2024/04/23 10:22:08;;;;;;;1.80;1.40;;;19.10;53.60;;;;;;11210983;26;19996;-26
2024/04/23 10:27:11;;;;;;;3.83;1.50;;;19.20;53.70;;;;;;11210757;26;20000;-25
2024/04/23 10:32:14;;;;;;;3.15;1.55;;;19.10;53.90;;;;;;11211142;26;20420;-28
2024/04/23 10:37:20;;;;;;;2.80;1.60;;;19.10;53.70;;;;;;11210661;26;20007;-28
2024/04/23 10:42:23;;;;;;;2.85;1.42;;;19.10;54.60;;;;;;11210428;26;20011;-28
2024/04/23 10:47:27;;;;;;;2.85;1.42;;;19.10;54.50;;;;;;11210094;26;19995;-27
2024/04/23 10:52:32;;;;;;;2.65;1.45;;;19.00;54.80;;;;;;11208420;26;19996;-27
2024/04/23 10:57:36;;;;;;;2.58;1.35;;;19.10;54.70;;;;;;11209787;26;20044;-27
2024/04/23 11:02:39;;;;;;;2.03;1.20;;;19.10;54.60;;;;;;11209752;26;20359;-28
2024/04/23 11:07:51;;;;;;;2.75;1.30;;;19.10;54.70;;;;;;11209885;26;20073;-29
2024/04/23 11:12:54;;;;;;;2.10;1.20;;;19.10;54.70;;;;;;11209562;26;20550;-25
2024/04/23 11:18:04;;;;;;;2.45;1.20;;;19.00;54.60;;;;;;11207603;26;20014;-27
2024/04/23 11:23:10;;;;;;;2.78;1.13;;;19.00;54.60;;;;;;11209485;26;20481;-26
2024/04/23 11:28:15;;;;;;;2.53;1.13;;;19.00;54.50;;;;;;11209000;26;20466;-27
2024/04/23 11:33:19;;;;;;;2.88;1.20;;;18.90;54.80;;;;;;11209140;26;20012;-31
2024/04/23 11:38:25;;;;;;;1.60;1.10;;;18.90;54.60;;;;;;11208794;26;20377;-27
2024/04/23 11:43:30;;;;;;;1.40;1.00;;;18.90;54.70;;;;;;11208331;26;20000;-27
2024/04/23 11:48:33;;;;;;;2.10;1.23;;;18.80;54.60;;;;;;11208339;26;20000;-29
2024/04/23 11:53:39;;;;;;;1.65;1.25;;;18.80;55.00;;;;;;11208008;26;20454;-28
2024/04/23 11:58:42;;;;;;;1.83;1.00;;;18.80;54.90;;;;;;11207913;26;19996;-29
2024/04/23 12:03:45;;;;;;;2.38;1.20;;;18.70;54.80;;;;;;11208595;26;20353;-27
2024/04/23 12:08:53;;;;;;;1.13;0.95;;;18.80;54.70;;;;;;11215280;26;20036;-28
2024/04/23 12:13:57;;;;;;;2.00;1.10;;;18.70;54.60;;;;;;11214611;26;20012;-28
2024/04/23 12:19:00;;;;;;;1.02;0.85;;;18.80;54.80;;;;;;11214869;26;20073;-27
2024/04/23 12:24:06;;;;;;;1.48;1.00;;;18.70;54.80;;;;;;11214184;26;20015;-28
2024/04/23 12:29:10;;;;;;;1.10;0.90;;;18.70;54.50;;;;;;11214387;26;20004;-29
2024/04/23 12:34:13;;;;;;;1.20;1.10;;;18.70;54.80;;;;;;11214210;26;20008;-27
2024/04/23 12:39:19;;;;;;;1.20;0.90;;;18.70;54.60;;;;;;11213975;26;19996;-27
2024/04/23 12:44:22;;;;;;;1.88;1.00;;;18.80;54.80;;;;;;11213624;26;20474;-29
2024/04/23 12:49:25;;;;;;;0.98;0.80;;;18.70;54.80;;;;;;11213660;26;20000;-27
2024/04/23 12:54:31;;;;;;;1.15;0.82;;;18.80;54.60;;;;;;11213449;26;20080;-30
2024/04/23 12:59:37;;;;;;;1.02;0.80;;;18.70;54.60;;;;;;11213444;26;20076;-29
2024/04/23 13:04:40;;;;;;;1.63;0.90;;;18.70;54.50;;;;;;11213165;26;19999;-31
2024/04/23 13:09:46;;;;;;;1.40;0.80;;;18.70;54.50;;;;;;11213076;26;20080;-28
2024/04/23 13:14:49;;;;;;;0.80;0.80;;;18.70;54.40;;;;;;11212129;26;20004;-28
2024/04/23 13:19:53;;;;;;;1.38;1.00;;;18.70;54.70;;;;;;11212703;26;20014;-28
2024/04/23 13:24:58;;;;;;;1.40;1.00;;;18.70;55.10;;;;;;11212458;26;20076;-29
2024/04/23 13:30:02;;;;;;;1.33;0.82;;;18.80;55.60;;;;;;11212458;26;20015;-29
2024/04/23 13:35:05;;;;;;;1.00;0.85;;;18.90;55.90;;;;;;11212273;26;20004;-27
2024/04/23 13:40:12;;;;;;;0.93;0.73;;;18.90;56.30;;;;;;11212224;26;20450;-31
2024/04/23 13:45:16;;;;;;;1.65;0.82;;;19.00;56.60;;;;;;11212087;26;20057;-28
2024/04/23 13:50:19;;;;;;;0.93;0.80;;;19.00;57.10;;;;;;11212049;26;20011;-31
2024/04/23 13:55:25;;;;;;;1.25;0.70;;;19.10;57.60;;;;;;11211643;26;20007;-27
2024/04/23 14:00:28;;;;;;;0.70;0.70;;;19.10;57.70;;;;;;11211602;26;20077;-26
2024/04/23 14:05:31;;;;;;;0.60;0.60;;;19.10;57.90;;;;;;11211240;26;20428;-27
2024/04/23 14:10:37;;;;;;;1.10;0.80;;;19.10;57.90;;;;;;11211236;26;20007;-27
2024/04/23 14:15:41;;;;;;;1.38;0.98;;;19.10;58.10;;;;;;11211124;26;20000;-25
2024/04/23 14:20:44;;;;;;;0.70;0.70;;;19.20;58.10;;;;;;11210942;26;20039;-30
2024/04/23 14:25:50;;;;;;;0.80;0.80;;;19.20;57.80;;;;;;11210716;26;19996;-28
2024/04/23 14:30:53;;;;;;;1.45;0.80;;;19.20;57.90;;;;;;11210598;26;20003;-27
2024/04/23 14:35:56;;;;;;;0.60;0.60;;;19.30;57.60;;;;;;11210791;26;20014;-27
2024/04/23 14:41:02;;;;;;;0.93;0.70;;;19.30;57.60;;;;;;11210274;26;19999;-29
2024/04/23 14:46:12;;;;;;;0.70;0.70;;;19.30;57.40;;;;;;11210258;26;20011;-29
2024/04/23 14:51:16;;;;;;;0.80;0.60;;;19.40;57.20;;;;;;11210123;26;20000;-29
2024/04/23 14:56:22;;;;;;;0.95;0.60;;;19.30;57.00;;;;;;11209958;26;20000;-27
2024/04/23 15:01:26;;;;;;;0.73;0.60;;;19.30;57.10;;;;;;11209935;26;20014;-27
2024/04/23 15:06:30;;;;;;;1.00;0.75;;;19.30;56.70;;;;;;11209488;26;19999;-27
2024/04/23 15:11:37;;;;;;;0.55;0.50;;;19.40;56.40;;;;;;11209524;26;20003;-27
2024/04/23 15:16:40;;;;;;;0.90;0.70;;;19.40;56.20;;;;;;11209321;26;20007;-28
2024/04/23 15:21:43;;;;;;;0.60;0.60;;;19.40;55.80;;;;;;11209346;26;20011;-27
2024/04/23 15:26:49;;;;;;;0.65;0.60;;;19.40;55.60;;;;;;11208935;26;20519;-25
2024/04/23 15:31:52;;;;;;;0.63;0.60;;;19.50;55.30;;;;;;11209393;26;20011;-25
2024/04/23 15:36:57;;;;;;;0.73;0.70;;;19.40;55.10;;;;;;11209478;26;20072;-30
2024/04/23 15:42:03;;;;;;;6.88;0.80;;;19.50;55.10;;;;;;11201285;26;20051;-30
2024/04/23 15:47:07;;;;;;;5.63;0.80;;;19.50;55.20;;;;;;11201719;26;20462;-28
2024/04/23 15:52:10;;;;;;;4.05;0.80;;;19.50;54.90;;;;;;11200948;26;20011;-29
2024/04/23 15:57:16;;;;;;;5.75;0.80;;;19.50;55.00;;;;;;11206055;26;20077;-29
2024/04/23 16:02:20;;;;;;;5.25;0.90;;;19.50;54.90;;;;;;11207589;26;20015;-26
2024/04/23 16:07:23;;;;;;;20.45;12.35;;;19.50;54.70;;;;;;11207448;26;20349;-27
2024/04/23 16:12:29;;;;;;;53.38;40.40;;;19.50;55.00;;;;;;11207332;26;20000;-26
2024/04/23 16:17:33;;;;;;;66.50;49.30;;;19.60;53.90;;;;;;11207105;26;20358;-29
2024/04/23 16:22:36;;;;;;;118.10;78.00;;;19.60;53.40;;;;;;11206847;26;20550;-28
2024/04/23 16:27:42;;;;;;;194.65;126.97;;;19.60;53.40;;;;;;11206754;26;20008;-27
2024/04/23 16:32:46;;;;;;;170.88;110.28;;;19.70;53.50;;;;;;11206872;26;20015;-31
2024/04/23 16:37:49;;;;;;;174.15;112.63;;;19.70;53.80;;;;;;11206636;26;20000;-28
2024/04/23 16:42:55;;;;;;;163.43;104.15;;;19.80;53.90;;;;;;11206484;26;20011;-27
2024/04/23 16:47:58;;;;;;;149.32;97.78;;;19.70;53.90;;;;;;11206124;26;20013;-29
2024/04/23 16:53:01;;;;;;;145.85;90.93;;;19.80;54.00;;;;;;11212021;26;19999;-29
2024/04/23 16:58:07;;;;;;;122.47;80.53;;;19.80;54.00;;;;;;11213994;26;20458;-28
2024/04/23 17:03:10;;;;;;;107.50;72.15;;;19.80;54.10;;;;;;11212743;26;20416;-34
2024/04/23 17:08:14;;;;;;;101.10;64.93;;;19.80;54.20;;;;;;11212910;26;20035;-29
2024/04/23 17:13:20;;;;;;;88.15;57.47;;;19.90;54.20;;;;;;11212846;26;20012;-29
2024/04/23 17:18:23;;;;;;;79.07;50.97;;;19.90;54.30;;;;;;11213076;26;19999;-28
2024/04/23 17:23:29;;;;;;;72.65;46.25;;;19.90;54.60;;;;;;11212440;26;20015;-26
2024/04/23 17:28:35;;;;;;;61.95;40.50;;;19.90;54.80;;;;;;11212336;26;20006;-24
2024/04/23 17:33:39;;;;;;;56.70;35.95;;;19.90;55.00;;;;;;11212272;26;19999;-28
2024/04/23 17:38:42;;;;;;;53.67;31.15;;;19.90;55.00;;;;;;11212946;26;20345;-27
2024/04/23 17:43:51;;;;;;;42.22;26.80;;;19.90;54.70;;;;;;11211773;26;19999;-28
2024/04/23 17:48:54;;;;;;;35.40;21.83;;;19.90;54.70;;;;;;11212101;26;20571;-28
2024/04/23 17:53:57;;;;;;;33.88;18.83;;;19.80;54.60;;;;;;11211928;26;20076;-29
2024/04/23 17:59:03;;;;;;;25.58;15.77;;;19.80;55.10;;;;;;11211524;26;20000;-26
2024/04/23 18:04:06;;;;;;;24.83;14.23;;;19.80;54.20;;;;;;11210439;26;20361;-29
2024/04/23 18:09:10;;;;;;;19.73;12.20;;;19.80;53.90;;;;;;11211802;26;20000;-28
2024/04/23 18:14:16;;;;;;;20.67;11.82;;;19.80;53.30;;;;;;11210820;26;20014;-27
2024/04/23 18:19:19;;;;;;;18.55;11.05;;;19.70;53.30;;;;;;11210863;26;20011;-26
2024/04/23 18:24:23;;;;;;;14.60;8.55;;;19.50;54.00;;;;;;11210639;26;20486;-31
2024/04/23 18:29:28;;;;;;;12.10;7.90;;;19.60;52.80;;;;;;11210747;26;20013;-27
2024/04/23 18:34:32;;;;;;;10.73;7.03;;;19.40;53.20;;;;;;11210645;26;20348;-27
2024/04/23 18:39:35;;;;;;;10.93;6.85;;;19.20;54.60;;;;;;11210544;26;20015;-29
2024/04/23 18:44:41;;;;;;;10.20;6.68;;;19.20;54.90;;;;;;11210018;26;20457;-25
2024/04/23 18:49:44;;;;;;;10.15;6.05;;;19.10;55.20;;;;;;11209491;26;20030;-28
2024/04/23 18:54:47;;;;;;;9.43;6.03;;;19.10;55.50;;;;;;11210131;26;20014;-27
2024/04/23 18:59:53;;;;;;;10.27;6.15;;;19.10;55.70;;;;;;11208622;26;20000;-27
2024/04/23 19:04:57;;;;;;;9.57;5.32;;;19.00;55.70;;;;;;11207950;26;20007;-30
2024/04/23 19:10:00;;;;;;;9.45;5.13;;;19.00;55.80;;;;;;11209630;26;20000;-27
2024/04/23 19:15:07;;;;;;;7.78;4.90;;;19.00;55.90;;;;;;11207668;26;20076;-27
2024/04/23 19:20:12;;;;;;;7.32;5.10;;;18.90;56.10;;;;;;11209229;26;20012;-25
2024/04/23 19:25:16;;;;;;;8.65;5.35;;;19.00;56.30;;;;;;11209022;26;20035;-29
2024/04/23 19:30:22;;;;;;;6.00;4.65;;;18.90;56.50;;;;;;11209035;26;19999;-27
2024/04/23 19:35:27;;;;;;;6.90;5.00;;;18.90;56.70;;;;;;11208983;26;20015;-29
2024/04/23 19:40:31;;;;;;;8.02;4.53;;;18.90;56.80;;;;;;11208962;26;20007;-26
2024/04/23 19:45:37;;;;;;;5.05;3.90;;;18.90;57.10;;;;;;11209063;26;20007;-29
2024/04/23 19:50:40;;;;;;;6.22;4.32;;;18.80;57.10;;;;;;11208247;26;20014;-29
2024/04/23 19:55:45;;;;;;;6.05;3.90;;;18.80;57.30;;;;;;11208400;26;20000;-26
2024/04/23 20:00:51;;;;;;;6.47;4.30;;;18.70;57.50;;;;;;11208005;26;20474;-27
2024/04/23 20:05:54;;;;;;;5.10;3.60;;;18.80;57.70;;;;;;11207532;26;20357;-27
2024/04/23 20:10:58;;;;;;;5.07;3.65;;;18.70;57.80;;;;;;11207560;26;19999;-28
2024/04/23 20:16:04;;;;;;;6.00;3.67;;;18.70;57.90;;;;;;11207291;26;19996;-28
2024/04/23 20:21:12;;;;;;;4.88;3.35;;;18.70;58.10;;;;;;11206681;26;20355;-28
2024/04/23 20:26:15;;;;;;;4.88;3.60;;;18.60;58.10;;;;;;11210028;26;20371;-29
2024/04/23 20:31:21;;;;;;;4.50;2.92;;;18.60;58.30;;;;;;11213399;26;20473;-30
2024/04/23 20:36:25;;;;;;;4.78;3.10;;;18.60;58.50;;;;;;11214143;26;20338;-28
2024/04/23 20:41:28;;;;;;;4.90;3.13;;;18.60;58.60;;;;;;11213458;26;20014;-28
2024/04/23 20:46:34;;;;;;;3.78;2.85;;;18.50;58.70;;;;;;11213351;26;20497;-27
2024/04/23 20:51:37;;;;;;;4.10;2.72;;;18.50;58.80;;;;;;11213373;26;19996;-26
2024/04/23 20:56:40;;;;;;;4.13;2.88;;;18.50;58.90;;;;;;11213231;26;20011;-30
2024/04/23 21:01:46;;;;;;;3.80;2.88;;;18.50;59.10;;;;;;11213389;26;20072;-35
2024/04/23 21:06:49;;;;;;;5.90;2.85;;;18.50;59.20;;;;;;11213109;26;20077;-29
2024/04/23 21:11:53;;;;;;;3.92;2.70;;;18.40;59.40;;;;;;11212938;26;20026;-25
2024/04/23 21:16:58;;;;;;;4.03;2.80;;;18.40;59.40;;;;;;11212910;26;20004;-27
2024/04/23 21:22:02;;;;;;;3.80;2.78;;;18.40;59.40;;;;;;11213368;26;20011;-28
2024/04/23 21:27:06;;;;;;;3.30;2.40;;;18.40;59.40;;;;;;11212477;26;19999;-28
2024/04/23 21:32:12;;;;;;;3.03;2.35;;;18.40;59.70;;;;;;11212522;26;20014;-27
2024/04/23 21:37:15;;;;;;;2.95;2.30;;;18.30;59.60;;;;;;11211600;26;20342;-28
2024/04/23 21:42:18;;;;;;;2.80;2.13;;;18.30;59.80;;;;;;11225796;26;20003;-28
2024/04/23 21:47:24;;;;;;;3.60;2.30;;;18.30;59.80;;;;;;11212032;26;20007;-28
2024/04/23 21:52:27;;;;;;;3.25;2.40;;;18.30;59.90;;;;;;11212521;26;20010;-26
2024/04/23 21:57:32;;;;;;;4.05;2.22;;;18.30;59.90;;;;;;11212168;26;20014;-28
2024/04/23 22:02:38;;;;;;;2.95;2.38;;;18.30;60.10;;;;;;11211627;26;20011;-29
2024/04/23 22:07:45;;;;;;;2.67;2.17;;;18.30;60.20;;;;;;11211595;26;19995;-29
2024/04/23 22:12:48;;;;;;;3.00;2.08;;;18.20;60.20;;;;;;11211471;26;20000;-27
2024/04/23 22:17:54;;;;;;;4.00;2.13;;;18.20;60.30;;;;;;11211095;26;19995;-27
2024/04/23 22:22:57;;;;;;;2.38;2.00;;;18.20;60.40;;;;;;11211172;26;20457;-28
2024/04/23 22:28:00;;;;;;;2.33;2.13;;;18.20;60.40;;;;;;11210924;26;20076;-26
2024/04/23 22:33:07;;;;;;;3.15;2.00;;;18.10;60.50;;;;;;11210769;26;20535;-28
2024/04/23 22:38:10;;;;;;;2.28;1.80;;;18.10;60.50;;;;;;11211403;26;20006;-29
2024/04/23 22:43:13;;;;;;;1.70;1.60;;;18.10;60.60;;;;;;11210548;26;19999;-29
2024/04/23 22:48:19;;;;;;;2.10;1.77;;;18.10;60.60;;;;;;11210195;26;19996;-28
2024/04/23 22:53:22;;;;;;;2.33;1.77;;;18.10;60.60;;;;;;11273290;26;20017;-26
2024/04/23 22:58:26;;;;;;;2.28;1.85;;;18.10;60.80;;;;;;11284314;26;19995;-28
2024/04/23 23:03:31;;;;;;;1.63;1.52;;;18.00;60.90;;;;;;11282085;26;20018;-26
2024/04/23 23:08:35;;;;;;;1.60;1.50;;;18.00;60.90;;;;;;11283977;26;19999;-29
2024/04/23 23:13:38;;;;;;;2.25;1.73;;;18.00;61.00;;;;;;11283765;26;20011;-26
2024/04/23 23:18:44;;;;;;;1.60;1.50;;;18.00;60.90;;;;;;11283696;26;19999;-27
2024/04/23 23:23:47;;;;;;;1.90;1.70;;;18.00;61.00;;;;;;11283528;26;20043;-27
2024/04/23 23:28:50;;;;;;;1.70;1.60;;;18.00;60.90;;;;;;11283363;26;20002;-29
2024/04/23 23:33:56;;;;;;;1.63;1.52;;;17.90;60.90;;;;;;11283503;26;20003;-28
2024/04/23 23:38:59;;;;;;;2.45;1.70;;;17.90;61.00;;;;;;11283067;26;19999;-27
2024/04/23 23:44:03;;;;;;;1.65;1.55;;;17.90;61.00;;;;;;11283108;26;20411;-27
2024/04/23 23:49:09;;;;;;;1.70;1.60;;;17.90;61.70;;;;;;11282681;26;20010;-27
2024/04/23 23:54:12;;;;;;;2.00;1.70;;;17.90;61.20;;;;;;11282604;26;20014;-28
2024/04/23 23:59:15;;;;;;;1.50;1.40;;;17.80;61.10;;;;;;11281407;26;20431;-26
